Terminal Aerodrome Forecast
Issued by NWS State College, PA

Home | Current Version | Previous Version | Text Only | Print | Product List | Glossary On
Versions: 1 2 3 4 5 6 7 8 9 10 11 12 13 14 15 16 17 18 19 20 21 22 23 24
000
FTUS41 KCTP 252332
TAFMDT
TAF
KMDT 252332Z 2600/2624 10007KT P6SM SCT050 BKN070
     FM260700 08006KT P6SM OVC025
     FM260900 07006KT 4SM -DZ BR OVC007
     FM261900 12008G15KT 5SM -DZ BR OVC015=

USA.gov is the U.S. government's official web portal to all federal, state and local government web resources and services.